Time;durP1;ratioP1;P1;durP2;ratioP2;P2;SDS_P1;SDS_P2;PMS_P1;PMS_P2;Temp;Humidity;BMP_temperature;BMP_pressure;BME280_temperature;BME280_humidity;BME280_pressure;Samples;Min_cycle;Max_cycle;Signal;HPM_P1;HPM_P2
2022/04/10 00:00:21;;;;;;;1.70;0.93;;;;;;;19.94;44.86;101067.38;4916527;29;20507;-77
2022/04/10 00:02:48;;;;;;;1.63;0.90;;;;;;;19.94;44.89;101055.78;4916568;29;20484;-78
2022/04/10 00:05:15;;;;;;;2.50;0.90;;;;;;;19.94;44.98;101064.69;4916621;28;20056;-78
2022/04/10 00:07:43;;;;;;;1.80;0.90;;;;;;;19.94;45.17;101069.22;4916272;29;20515;-78
2022/04/10 00:10:10;;;;;;;1.90;1.10;;;;;;;19.94;45.14;101061.16;4916520;29;20055;-78
2022/04/10 00:12:38;;;;;;;2.95;0.82;;;;;;;19.93;44.87;101060.31;4916355;29;20510;-78
2022/04/10 00:15:06;;;;;;;1.48;0.80;;;;;;;19.93;44.94;101065.69;4916018;29;20052;-78
2022/04/10 00:17:33;;;;;;;1.52;0.90;;;;;;;19.94;45.02;101063.84;4916168;29;20044;-78
2022/04/10 00:20:01;;;;;;;1.35;0.70;;;;;;;19.92;44.96;101063.13;4916591;29;20411;-78
2022/04/10 00:22:29;;;;;;;1.30;0.70;;;;;;;19.93;45.17;101064.81;4915747;29;20059;-78
2022/04/10 00:24:56;;;;;;;1.88;1.00;;;;;;;19.92;45.21;101055.06;4914993;29;20049;-78
2022/04/10 00:27:24;;;;;;;1.63;0.80;;;;;;;19.92;45.03;101060.44;4914406;29;20044;-78
2022/04/10 00:29:51;;;;;;;2.13;0.88;;;;;;;19.91;44.67;101054.22;4891474;28;20049;-78
2022/04/10 00:32:28;;;;;;;1.83;0.80;;;;;;;19.92;45.08;101055.91;4897353;29;20057;-77
2022/04/10 00:34:56;;;;;;;1.85;1.02;;;;;;;19.91;44.75;101051.50;4895944;29;20416;-78
2022/04/10 00:37:24;;;;;;;1.75;1.00;;;;;;;19.91;44.85;101056.03;4879743;29;20055;-78
2022/04/10 00:39:52;;;;;;;1.55;0.80;;;;;;;19.91;44.75;101053.34;4896721;28;20060;-78
2022/04/10 00:42:20;;;;;;;1.23;0.70;;;;;;;19.91;44.62;101047.97;4897016;29;20041;-78
2022/04/10 00:44:47;;;;;;;1.30;0.70;;;;;;;19.90;44.86;101048.97;4896673;28;20065;-78
2022/04/10 00:47:15;;;;;;;2.08;0.80;;;;;;;19.91;44.81;101050.66;4896991;29;20052;-77
2022/04/10 00:49:42;;;;;;;1.45;0.80;;;;;;;19.89;44.83;101058.88;4895471;29;20063;-77
2022/04/10 00:52:10;;;;;;;1.27;0.73;;;;;;;19.90;44.97;101054.34;4897179;28;20508;-78
2022/04/10 00:54:38;;;;;;;2.03;0.90;;;;;;;19.89;44.91;101060.69;4895357;29;20519;-78
2022/04/10 00:57:06;;;;;;;1.40;0.75;;;;;;;19.90;44.85;101067.78;4895437;29;20413;-78
2022/04/10 00:59:33;;;;;;;1.48;0.77;;;;;;;19.89;44.54;101072.31;4896513;29;20060;-78
2022/04/10 01:02:01;;;;;;;1.77;1.02;;;;;;;19.89;45.00;101072.31;4895403;29;20053;-78
2022/04/10 01:04:39;;;;;;;1.83;1.00;;;;;;;19.89;44.82;101074.13;4896721;29;20079;-78
2022/04/10 01:07:07;;;;;;;1.40;0.80;;;;;;;19.88;44.92;101084.00;4896460;29;20052;-78
2022/04/10 01:09:40;;;;;;;1.50;0.80;;;;;;;19.88;44.65;101093.91;4879684;29;20053;-78
2022/04/10 01:12:09;;;;;;;2.03;0.93;;;;;;;19.87;44.57;101098.44;4896703;29;20056;-78
2022/04/10 01:14:39;;;;;;;2.28;0.80;;;;;;;19.88;44.68;101112.72;4894865;29;20065;-77
2022/04/10 01:17:10;;;;;;;1.63;0.93;;;;;;;19.88;44.53;101107.34;4896812;28;20057;-77
2022/04/10 01:19:41;;;;;;;1.20;0.80;;;;;;;19.87;44.76;101113.72;4881390;28;20056;-78
2022/04/10 01:22:32;;;;;;;2.85;0.80;;;;;;;19.86;44.57;101115.53;4881508;28;20420;-78
2022/04/10 01:25:06;;;;;;;2.72;0.90;;;;;;;19.87;44.65;101113.72;4894231;29;20048;-78
2022/04/10 01:27:37;;;;;;;1.38;0.73;;;;;;;19.86;44.56;101112.84;4879187;29;20075;-78
2022/04/10 01:30:07;;;;;;;1.55;0.90;;;;;;;19.87;44.38;101111.03;4896085;29;20049;-78
2022/04/10 01:32:35;;;;;;;1.95;0.90;;;;;;;19.85;44.65;101108.47;4894012;29;20408;-78
2022/04/10 01:35:04;;;;;;;1.15;0.65;;;;;;;19.86;44.16;101112.00;4879046;29;20444;-77
2022/04/10 01:37:35;;;;;;;1.40;0.90;;;;;;;19.86;44.34;101109.31;4879390;29;20512;-77
2022/04/10 01:40:05;;;;;;;1.20;0.70;;;;;;;19.85;44.13;101108.47;4894546;29;20060;-78
2022/04/10 01:42:33;;;;;;;1.60;0.80;;;;;;;19.85;44.34;101107.59;4879166;29;20061;-78
2022/04/10 01:45:01;;;;;;;1.02;0.60;;;;;;;19.84;44.26;101105.91;4879011;29;20049;-78
2022/04/10 01:47:29;;;;;;;2.50;0.80;;;;;;;19.84;44.23;101108.59;4894239;29;20059;-78
2022/04/10 01:49:57;;;;;;;1.38;0.90;;;;;;;19.84;44.08;101108.59;4895888;29;20060;-78
2022/04/10 01:52:24;;;;;;;1.27;0.68;;;;;;;19.85;44.09;101110.28;4894194;29;20052;-78
2022/04/10 01:54:53;;;;;;;1.23;0.70;;;;;;;19.84;44.03;101114.81;4894244;29;20048;-78
2022/04/10 01:57:21;;;;;;;0.68;0.50;;;;;;;19.84;44.08;101116.63;4878820;29;20052;-78
2022/04/10 01:59:48;;;;;;;1.55;0.80;;;;;;;19.83;44.07;101112.25;4894300;29;20060;-78
2022/04/10 02:02:16;;;;;;;1.83;0.80;;;;;;;19.83;44.07;101106.88;4878763;29;20053;-78
2022/04/10 02:04:44;;;;;;;1.00;0.70;;;;;;;19.84;44.15;101116.63;4878980;29;20052;-78
2022/04/10 02:07:11;;;;;;;0.80;0.60;;;;;;;19.83;43.86;101121.16;4879041;29;20056;-78
2022/04/10 02:09:39;;;;;;;1.15;0.70;;;;;;;19.83;43.98;101123.84;4894578;29;20052;-78
2022/04/10 02:12:07;;;;;;;1.27;0.70;;;;;;;19.83;43.84;101123.00;4878978;29;20056;-77
2022/04/10 02:14:35;;;;;;;1.30;0.70;;;;;;;19.82;44.13;101124.00;4878345;29;20409;-78
2022/04/10 02:17:04;;;;;;;1.33;0.80;;;;;;;19.83;43.86;101125.69;4893832;29;20056;-77
2022/04/10 02:19:32;;;;;;;1.55;0.95;;;;;;;19.81;43.73;101123.16;4878759;29;20064;-78
2022/04/10 02:22:01;;;;;;;1.20;0.80;;;;;;;19.82;43.94;101129.38;4895594;29;20104;-78
2022/04/10 02:24:29;;;;;;;1.45;0.70;;;;;;;19.81;43.87;101125.84;4878550;29;20052;-78
2022/04/10 02:26:56;;;;;;;1.73;0.70;;;;;;;19.81;43.80;101124.94;4878367;29;20519;-77
2022/04/10 02:29:23;;;;;;;0.98;0.60;;;;;;;19.80;43.91;101131.31;4878420;29;20056;-77
2022/04/10 02:31:51;;;;;;;1.10;0.65;;;;;;;19.81;43.87;101127.63;4888373;29;20044;-77
2022/04/10 02:34:19;;;;;;;1.00;0.70;;;;;;;19.81;44.07;101136.56;4914709;28;20052;-78
2022/04/10 02:36:47;;;;;;;1.17;0.70;;;;;;;19.80;43.88;101134.84;4896565;29;20056;-77
2022/04/10 02:39:14;;;;;;;1.02;0.70;;;;;;;19.79;43.83;101138.53;4912283;29;20060;-78
2022/04/10 02:41:42;;;;;;;1.35;0.70;;;;;;;19.80;43.99;101142.06;4914471;29;20048;-77
2022/04/10 02:44:09;;;;;;;1.80;0.80;;;;;;;19.80;43.80;101131.31;4912604;29;20415;-77
2022/04/10 02:46:37;;;;;;;1.67;0.90;;;;;;;19.80;43.89;101134.84;4896727;29;20052;-78
2022/04/10 02:49:06;;;;;;;1.35;0.80;;;;;;;19.79;43.86;101132.31;4898168;29;20613;-77
2022/04/10 02:51:33;;;;;;;1.45;0.80;;;;;;;19.79;44.05;101129.63;4912298;29;20067;-77
2022/04/10 02:54:01;;;;;;;1.60;0.80;;;;;;;19.79;43.91;101137.69;4897824;28;20045;-79
2022/04/10 02:56:29;;;;;;;1.00;0.68;;;;;;;19.78;43.84;101146.72;4897115;29;20060;-78
2022/04/10 02:58:57;;;;;;;1.02;0.60;;;;;;;19.78;43.83;101147.56;4914995;28;20515;-77
2022/04/10 03:01:24;;;;;;;1.50;0.90;;;;;;;19.78;43.81;101146.72;4898275;29;20052;-78
2022/04/10 03:03:53;;;;;;;1.23;0.80;;;;;;;19.77;43.84;101145.88;4913264;29;20056;-78
2022/04/10 03:06:23;;;;;;;1.13;0.70;;;;;;;19.78;43.72;101150.25;4912436;29;20056;-78
2022/04/10 03:08:50;;;;;;;1.15;0.80;;;;;;;19.76;43.79;101155.72;4896476;29;20060;-78
2022/04/10 03:11:20;;;;;;;1.20;0.77;;;;;;;19.76;43.63;101161.09;4912404;29;20059;-78
2022/04/10 03:13:48;;;;;;;1.40;0.88;;;;;;;19.76;43.54;101166.47;4893475;29;20049;-78
2022/04/10 03:16:16;;;;;;;1.15;0.60;;;;;;;19.77;43.90;101164.69;4889858;29;20053;-78
2022/04/10 03:18:44;;;;;;;0.90;0.60;;;;;;;19.76;43.50;101171.84;4890517;29;20080;-78
2022/04/10 03:21:12;;;;;;;1.13;0.77;;;;;;;19.76;43.39;101173.69;4890134;29;20394;-77
2022/04/10 03:23:40;;;;;;;1.10;0.70;;;;;;;19.75;43.32;101170.16;4876510;29;20053;-78
2022/04/10 03:26:07;;;;;;;2.13;0.73;;;;;;;19.76;43.95;101169.16;4890318;29;20497;-79
2022/04/10 03:28:35;;;;;;;1.10;0.60;;;;;;;19.75;44.09;101170.16;4874910;29;20098;-78
2022/04/10 03:31:02;;;;;;;1.23;0.80;;;;;;;19.76;43.61;101176.38;4893026;29;20048;-80
2022/04/10 03:33:30;;;;;;;1.05;0.70;;;;;;;19.75;43.30;101175.53;4880841;29;20412;-79
2022/04/10 03:35:58;;;;;;;1.35;0.90;;;;;;;19.76;43.14;101173.69;4876351;28;20096;-79
2022/04/10 03:38:26;;;;;;;1.25;0.70;;;;;;;19.75;42.94;101186.28;4892079;28;20046;-79
2022/04/10 03:40:53;;;;;;;1.75;0.80;;;;;;;19.75;42.50;101190.78;4876497;29;20057;-79
2022/04/10 03:43:22;;;;;;;1.42;0.88;;;;;;;19.74;42.72;101198.00;4891671;28;20061;-78
2022/04/10 03:45:50;;;;;;;2.53;0.70;;;;;;;19.73;42.42;101193.63;4874486;29;20049;-79
2022/04/10 03:48:18;;;;;;;1.48;0.70;;;;;;;19.73;42.30;101196.31;4876154;28;20413;-79
2022/04/10 03:50:46;;;;;;;1.50;0.75;;;;;;;19.73;42.42;101188.25;4875776;28;20072;-79
2022/04/10 03:53:17;;;;;;;0.90;0.55;;;;;;;19.72;42.59;101191.88;4874610;29;20049;-79
2022/04/10 03:55:45;;;;;;;2.35;0.90;;;;;;;19.72;42.45;101194.56;4890110;28;20056;-79
2022/04/10 03:58:12;;;;;;;1.33;0.80;;;;;;;19.72;42.53;101202.63;4894508;28;20509;-79
2022/04/10 04:00:40;;;;;;;1.17;0.70;;;;;;;19.72;42.42;101199.09;4877429;29;20068;-79
2022/04/10 04:03:12;;;;;;;1.45;0.80;;;;;;;19.71;42.40;101200.94;4877912;28;20056;-79
2022/04/10 04:05:41;;;;;;;1.25;0.80;;;;;;;19.71;42.33;101197.41;4894417;28;20064;-79
2022/04/10 04:08:11;;;;;;;1.17;0.60;;;;;;;19.70;42.21;101193.00;4877510;28;20057;-79
2022/04/10 04:10:39;;;;;;;1.17;0.80;;;;;;;19.70;42.34;101203.75;4877436;29;20068;-78
2022/04/10 04:13:07;;;;;;;3.05;0.70;;;;;;;19.70;42.20;101198.38;4878944;29;20049;-77
2022/04/10 04:15:35;;;;;;;1.55;0.90;;;;;;;19.69;41.93;101204.75;4894051;28;20057;-78
2022/04/10 04:18:03;;;;;;;1.70;1.00;;;;;;;19.69;42.47;101205.59;4877339;28;20053;-78
2022/04/10 04:20:31;;;;;;;1.63;0.80;;;;;;;19.68;42.04;101206.56;4878518;29;20060;-78
2022/04/10 04:23:00;;;;;;;1.60;0.90;;;;;;;19.67;42.34;101212.91;4878864;28;20072;-77
2022/04/10 04:25:27;;;;;;;1.80;0.88;;;;;;;19.68;41.99;101216.44;4892616;29;20061;-78
2022/04/10 04:27:57;;;;;;;1.52;0.95;;;;;;;19.67;42.08;101212.91;4877080;28;20055;-79
2022/04/10 04:30:25;;;;;;;1.67;0.88;;;;;;;19.67;42.13;101214.75;4878902;28;20053;-79
2022/04/10 04:32:58;;;;;;;1.55;0.90;;;;;;;19.66;42.06;101213.91;4897466;29;20507;-79
2022/04/10 04:35:25;;;;;;;1.25;0.80;;;;;;;19.66;42.00;101215.72;4877079;29;20057;-78
2022/04/10 04:37:54;;;;;;;1.20;0.80;;;;;;;19.65;42.32;101220.25;4877136;29;20072;-78
2022/04/10 04:40:22;;;;;;;1.60;0.95;;;;;;;19.66;41.94;101219.28;4876804;29;20056;-78
2022/04/10 04:42:52;;;;;;;1.08;0.75;;;;;;;19.66;42.11;101226.47;4893749;28;20064;-78
2022/04/10 04:45:23;;;;;;;1.50;0.90;;;;;;;19.65;42.01;101227.47;4892229;29;20060;-78
2022/04/10 04:48:09;;;;;;;1.83;0.82;;;;;;;19.64;41.84;101223.91;4884864;29;20063;-77
2022/04/10 04:50:36;;;;;;;1.40;0.93;;;;;;;19.63;41.81;101208.75;4878010;29;20049;-78
2022/04/10 04:53:04;;;;;;;1.50;0.80;;;;;;;19.63;41.92;101211.44;4893743;28;20060;-78
2022/04/10 04:55:34;;;;;;;1.83;0.95;;;;;;;19.64;41.91;101215.00;4893787;28;20118;-78
2022/04/10 04:58:02;;;;;;;1.95;0.90;;;;;;;19.63;42.07;101214.13;4876639;29;20064;-78
2022/04/10 05:00:30;;;;;;;1.70;0.90;;;;;;;19.63;42.16;101218.66;4892110;29;20536;-78
2022/04/10 05:03:01;;;;;;;1.58;0.85;;;;;;;19.63;41.94;101224.03;4892503;28;20064;-77
2022/04/10 05:05:29;;;;;;;1.40;0.80;;;;;;;19.63;42.07;101221.34;4892352;29;20053;-78
2022/04/10 05:08:03;;;;;;;1.70;0.82;;;;;;;19.62;41.82;101227.72;4875555;29;20064;-77
2022/04/10 05:10:31;;;;;;;1.20;0.75;;;;;;;19.63;41.90;101245.53;4876550;29;20523;-78
2022/04/10 05:13:00;;;;;;;1.60;0.90;;;;;;;19.61;41.83;101232.22;4876344;29;20065;-78
2022/04/10 05:15:27;;;;;;;1.30;0.80;;;;;;;19.62;41.71;101241.97;4892907;28;20045;-78
2022/04/10 05:17:56;;;;;;;1.20;0.80;;;;;;;19.62;41.86;101246.50;4892177;28;20053;-78
2022/04/10 05:20:24;;;;;;;1.70;1.00;;;;;;;19.61;41.90;101237.59;4877518;29;20053;-78
2022/04/10 05:23:03;;;;;;;2.15;0.95;;;;;;;19.61;41.90;101242.97;4891784;29;20072;-78
2022/04/10 05:25:37;;;;;;;1.70;1.00;;;;;;;19.61;41.92;101247.47;4891836;29;20049;-78
2022/04/10 05:28:07;;;;;;;1.38;0.80;;;;;;;19.61;41.89;101252.84;4891552;29;20520;-78
2022/04/10 05:30:35;;;;;;;1.45;0.82;;;;;;;19.60;41.66;101251.94;4892200;29;20060;-77
2022/04/10 05:33:04;;;;;;;1.58;1.10;;;;;;;19.59;41.79;101252.94;4891358;29;20121;-77
2022/04/10 05:35:32;;;;;;;2.30;1.13;;;;;;;19.59;41.53;101250.25;4905451;28;20051;-77
2022/04/10 05:38:00;;;;;;;1.48;0.82;;;;;;;19.60;41.78;101257.31;4910502;29;20063;-77
2022/04/10 05:40:28;;;;;;;1.40;0.80;;;;;;;19.60;41.79;101256.47;4894907;29;20053;-78
2022/04/10 05:42:57;;;;;;;1.42;0.88;;;;;;;19.59;41.46;101263.69;4909721;29;20064;-78
2022/04/10 05:45:24;;;;;;;1.13;0.80;;;;;;;19.59;41.67;101265.50;4894885;29;20120;-78
2022/04/10 05:47:54;;;;;;;2.88;0.95;;;;;;;19.59;41.67;101274.41;4894789;29;20389;-78
2022/04/10 05:50:26;;;;;;;2.38;0.77;;;;;;;19.58;41.58;101266.50;4911737;28;20057;-79
2022/04/10 05:52:53;;;;;;;1.52;0.90;;;;;;;19.58;41.69;101275.41;4893956;29;20060;-78
2022/04/10 05:55:24;;;;;;;1.48;0.85;;;;;;;19.58;41.68;101278.09;4894726;29;20049;-78
2022/04/10 05:57:52;;;;;;;1.33;0.85;;;;;;;19.58;41.79;101275.41;4910021;29;20053;-79
2022/04/10 06:00:24;;;;;;;1.90;0.80;;;;;;;19.57;41.61;101284.44;4894408;29;20064;-78
2022/04/10 06:03:06;;;;;;;1.35;0.77;;;;;;;19.58;41.74;101285.28;4894500;29;20048;-78
2022/04/10 06:05:36;;;;;;;1.85;0.88;;;;;;;19.57;41.48;101284.44;4894050;29;20068;-78
2022/04/10 06:08:10;;;;;;;1.30;0.70;;;;;;;19.58;41.76;101291.50;4894291;29;20527;-77
2022/04/10 06:10:38;;;;;;;1.27;0.80;;;;;;;19.57;41.68;101300.56;4909774;29;20404;-78
2022/04/10 06:13:11;;;;;;;1.25;0.80;;;;;;;19.57;41.69;101295.19;4909868;29;20063;-78
2022/04/10 06:16:06;;;;;;;1.60;1.00;;;;;;;19.57;41.62;101297.00;4901585;29;20057;-78
2022/04/10 06:18:34;;;;;;;1.48;0.80;;;;;;;19.57;41.76;101300.56;4911609;28;20061;-79
2022/04/10 06:21:04;;;;;;;1.83;0.82;;;;;;;19.57;41.71;101302.38;4894588;29;20052;-78
2022/04/10 06:23:33;;;;;;;1.30;0.85;;;;;;;19.57;41.80;101308.63;4909910;29;20053;-79
2022/04/10 06:26:10;;;;;;;1.65;1.00;;;;;;;19.56;41.88;101298.81;4893737;29;20068;-78
2022/04/10 06:28:37;;;;;;;1.25;0.70;;;;;;;19.56;41.50;101298.81;4895515;29;20490;-78
2022/04/10 06:31:09;;;;;;;1.15;0.60;;;;;;;19.57;41.63;101305.03;4909955;29;20067;-78
2022/04/10 06:33:38;;;;;;;1.35;0.70;;;;;;;19.57;41.88;101299.69;4906447;29;20056;-78
2022/04/10 06:36:06;;;;;;;1.23;0.77;;;;;;;19.56;41.80;101298.81;4887080;28;20049;-79
2022/04/10 06:38:34;;;;;;;0.98;0.60;;;;;;;19.57;41.69;101297.88;4890753;29;20516;-78
2022/04/10 06:41:09;;;;;;;1.40;0.90;;;;;;;19.58;41.85;101301.41;4876358;29;20331;-78
2022/04/10 06:43:36;;;;;;;1.83;0.82;;;;;;;19.56;41.81;101304.19;4861330;29;20061;-78
2022/04/10 06:46:13;;;;;;;1.30;0.70;;;;;;;19.57;41.95;101303.25;4882577;29;20053;-77
2022/04/10 06:48:54;;;;;;;1.83;0.90;;;;;;;19.56;41.74;101300.66;4892461;28;20056;-78
2022/04/10 06:51:22;;;;;;;1.58;0.90;;;;;;;19.57;41.78;101311.31;4890576;29;20079;-78
2022/04/10 06:53:51;;;;;;;1.00;0.70;;;;;;;19.56;41.82;101298.81;4859751;29;20057;-78
2022/04/10 06:56:19;;;;;;;1.92;0.75;;;;;;;19.56;41.87;101301.50;4890723;29;20060;-78
2022/04/10 06:58:46;;;;;;;1.30;0.80;;;;;;;19.57;41.88;101302.38;4890476;29;20413;-78
2022/04/10 07:01:14;;;;;;;1.45;0.73;;;;;;;19.57;41.83;101299.69;4890418;29;20056;-78
2022/04/10 07:03:43;;;;;;;2.30;1.02;;;;;;;19.57;41.97;101300.56;4892205;28;20493;-78
2022/04/10 07:06:13;;;;;;;1.98;0.70;;;;;;;19.57;41.62;101305.94;4891567;28;20515;-78
2022/04/10 07:08:41;;;;;;;1.25;0.80;;;;;;;19.56;41.58;101301.50;4874494;29;20053;-78
2022/04/10 07:11:10;;;;;;;1.48;0.75;;;;;;;19.57;41.41;101300.56;4890529;29;20076;-77
2022/04/10 07:13:37;;;;;;;1.60;0.90;;;;;;;19.57;41.41;101300.56;4876415;29;20064;-79
2022/04/10 07:16:06;;;;;;;1.58;0.70;;;;;;;19.58;41.29;101298.72;4895755;28;20060;-78
2022/04/10 07:18:33;;;;;;;1.05;0.60;;;;;;;19.57;41.04;101303.25;4894972;28;20056;-78
2022/04/10 07:21:07;;;;;;;1.10;0.70;;;;;;;19.57;41.16;101303.25;4895072;28;20063;-79
2022/04/10 07:23:42;;;;;;;1.58;0.80;;;;;;;19.57;40.89;101305.94;4893445;29;20064;-79
2022/04/10 07:26:25;;;;;;;0.93;0.60;;;;;;;19.57;40.88;101315.78;4894890;28;20060;-78
2022/04/10 07:28:58;;;;;;;2.20;0.70;;;;;;;19.57;41.19;101313.09;4877504;29;20049;-78
2022/04/10 07:31:27;;;;;;;1.05;0.80;;;;;;;19.57;41.19;101316.66;4894100;29;20060;-78
2022/04/10 07:33:55;;;;;;;1.25;0.73;;;;;;;19.57;41.00;101322.03;4882310;29;20055;-78
2022/04/10 07:36:45;;;;;;;1.60;0.70;;;;;;;19.57;40.92;101329.22;4904049;28;20057;-78
2022/04/10 07:39:13;;;;;;;1.02;0.80;;;;;;;19.57;41.05;101324.72;4896007;29;20416;-77
2022/04/10 07:41:46;;;;;;;1.38;0.77;;;;;;;19.57;40.87;101315.78;4880667;29;20054;-78
2022/04/10 07:44:20;;;;;;;1.08;0.73;;;;;;;19.56;41.24;101323.00;4880948;29;20057;-78
2022/04/10 07:49:34;;;;;;;1.92;0.82;;;;;;;19.58;40.96;101336.31;4896608;29;20071;-78
2022/04/10 07:52:06;;;;;;;1.20;0.60;;;;;;;19.56;41.02;101341.78;4880918;29;20055;-77
2022/04/10 07:54:52;;;;;;;0.95;0.65;;;;;;;19.57;40.86;101342.66;4904185;29;20068;-78
2022/04/10 07:57:20;;;;;;;1.25;0.70;;;;;;;19.57;40.82;101350.69;4880650;29;20057;-79
2022/04/10 07:59:49;;;;;;;2.47;0.93;;;;;;;19.57;41.09;101353.38;4880957;29;20090;-78
2022/04/10 08:02:42;;;;;;;1.10;0.65;;;;;;;19.57;40.77;101348.91;4897599;29;20059;-78
2022/04/10 08:05:30;;;;;;;1.27;0.70;;;;;;;19.56;40.78;101357.06;4896978;28;20523;-78
2022/04/10 08:08:11;;;;;;;2.08;0.82;;;;;;;19.58;41.97;101357.81;4897104;29;20067;-78
2022/04/10 08:10:39;;;;;;;2.45;0.80;;;;;;;19.59;40.76;101359.50;4897983;29;20052;-78
2022/04/10 08:13:06;;;;;;;2.28;0.70;;;;;;;19.61;40.95;101369.19;4897402;29;20484;-78
2022/04/10 08:15:34;;;;;;;2.05;0.80;;;;;;;19.62;41.04;101376.28;4880283;29;20061;-78
2022/04/10 08:18:08;;;;;;;1.67;0.90;;;;;;;19.62;40.85;101370.91;4897700;29;20044;-78
2022/04/10 08:20:36;;;;;;;1.45;0.80;;;;;;;19.64;40.73;101379.69;4897285;29;20049;-78
2022/04/10 08:23:03;;;;;;;3.05;0.88;;;;;;;19.65;40.71;101380.56;4897460;29;20052;-78
2022/04/10 08:25:30;;;;;;;1.35;0.75;;;;;;;19.66;41.21;101382.25;4897749;29;20056;-79
2022/04/10 08:27:58;;;;;;;5.32;0.90;;;;;;;19.66;40.81;101384.97;4897162;29;20052;-80
2022/04/10 08:30:26;;;;;;;3.45;0.90;;;;;;;19.67;40.32;101392.03;4880940;29;20515;-79
2022/04/10 08:32:54;;;;;;;3.58;1.00;;;;;;;19.66;39.42;101396.56;4897115;29;20488;-84
2022/04/10 08:35:21;;;;;;;2.03;1.00;;;;;;;19.64;38.85;101387.75;4893475;29;20516;-78
2022/04/10 08:37:49;;;;;;;1.90;0.98;;;;;;;19.64;38.99;101401.16;4896679;29;20044;-79
2022/04/10 08:40:16;;;;;;;3.70;0.77;;;;;;;19.63;38.79;101407.53;4897245;29;20082;-83
2022/04/10 08:42:43;;;;;;;1.77;0.70;;;;;;;19.62;38.49;101404.97;4896719;29;20052;-81
2022/04/10 08:45:11;;;;;;;1.33;0.70;;;;;;;19.59;37.62;101414.06;4890885;29;20060;-80
2022/04/10 08:47:39;;;;;;;2.72;1.10;;;;;;;19.57;37.92;101409.78;4886426;29;20059;-79
2022/04/10 08:50:07;;;;;;;2.70;1.10;;;;;;;19.56;38.23;101417.00;4883855;28;20057;-81
2022/04/10 08:52:37;;;;;;;2.15;1.10;;;;;;;19.55;38.15;101414.44;4897144;29;20044;-79
2022/04/10 08:55:05;;;;;;;4.63;1.40;;;;;;;19.57;38.68;101417.84;4896847;29;20044;-79
2022/04/10 08:57:33;;;;;;;2.40;1.02;;;;;;;19.58;38.98;101419.59;4881627;28;20080;-80
2022/04/10 09:00:00;;;;;;;2.28;0.80;;;;;;;19.59;39.24;101415.91;4896825;29;20174;-79
2022/04/10 09:02:29;;;;;;;3.50;1.15;;;;;;;19.59;39.16;101414.06;4896780;29;20047;-79
2022/04/10 09:04:56;;;;;;;2.03;1.00;;;;;;;19.60;40.04;101420.31;4896591;29;20049;-78
2022/04/10 09:07:26;;;;;;;1.90;0.80;;;;;;;19.62;40.10;101416.56;4877771;28;20045;-79
2022/04/10 09:09:57;;;;;;;2.13;1.20;;;;;;;19.64;39.46;101409.22;4890970;29;20071;-78
2022/04/10 09:12:25;;;;;;;1.98;0.90;;;;;;;19.65;39.42;101416.34;4881922;29;20049;-79
2022/04/10 09:15:02;;;;;;;6.13;1.70;;;;;;;19.63;38.69;101414.72;4896237;29;20065;-80
2022/04/10 09:17:30;;;;;;;2.55;0.98;;;;;;;19.62;38.74;101418.41;4896074;29;20045;-80
2022/04/10 09:19:58;;;;;;;4.15;1.00;;;;;;;19.61;38.94;101422.91;4895710;29;20045;-77
2022/04/10 09:22:28;;;;;;;3.05;1.00;;;;;;;19.61;38.96;101427.41;4896209;29;20052;-75
2022/04/10 09:25:07;;;;;;;3.00;0.80;;;;;;;19.63;38.99;101422.78;4896740;29;20053;-79
2022/04/10 09:27:36;;;;;;;3.30;1.45;;;;;;;19.63;38.63;101415.59;4894639;29;20138;-79
2022/04/10 09:30:06;;;;;;;1.25;0.80;;;;;;;19.64;37.72;101422.66;4896369;29;20049;-78
2022/04/10 09:32:41;;;;;;;2.63;0.85;;;;;;;19.62;37.63;101419.25;4896417;29;20052;-79
2022/04/10 09:35:11;;;;;;;2.90;1.10;;;;;;;19.60;37.90;101413.09;4880064;29;20057;-78
2022/04/10 09:37:56;;;;;;;2.60;1.10;;;;;;;19.58;37.81;101415.06;4895886;29;20049;-82
2022/04/10 09:40:31;;;;;;;1.63;0.93;;;;;;;19.58;38.13;101411.53;4910616;29;20052;-81
2022/04/10 09:43:12;;;;;;;2.10;1.05;;;;;;;19.57;38.07;101416.03;4915028;29;20492;-80
2022/04/10 09:45:42;;;;;;;1.80;1.30;;;;;;;19.56;37.85;101411.63;4898758;29;20052;-82
2022/04/10 09:48:29;;;;;;;1.48;0.90;;;;;;;19.56;38.45;101417.00;4915141;29;20404;-80
2022/04/10 09:51:01;;;;;;;3.97;0.93;;;;;;;19.56;38.14;101408.94;4918415;29;20052;-80
2022/04/10 09:53:30;;;;;;;1.80;1.00;;;;;;;19.55;38.30;101409.06;4916631;29;20492;-80
2022/04/10 09:56:03;;;;;;;2.00;1.10;;;;;;;19.54;38.27;101405.53;4916988;29;20526;-80
2022/04/10 09:58:32;;;;;;;2.75;1.05;;;;;;;19.54;38.04;101410.91;4913391;29;20056;-80
2022/04/10 10:01:03;;;;;;;2.63;0.93;;;;;;;19.54;38.46;101405.53;4914643;29;20057;-78
2022/04/10 10:03:36;;;;;;;1.90;1.00;;;;;;;19.54;38.13;101400.16;4914571;29;20384;-76
2022/04/10 10:06:06;;;;;;;3.75;0.90;;;;;;;19.55;38.33;101401.88;4914908;29;20048;-76
2022/04/10 10:08:34;;;;;;;5.40;1.02;;;;;;;19.56;38.56;101402.72;4912485;29;20059;-76
2022/04/10 10:11:02;;;;;;;2.53;1.10;;;;;;;19.56;38.60;101394.66;4914479;29;20044;-75
2022/04/10 10:13:30;;;;;;;1.90;0.90;;;;;;;19.55;38.66;101387.59;4915037;29;20048;-77
2022/04/10 10:15:58;;;;;;;4.65;1.05;;;;;;;19.57;38.75;101381.13;4914201;29;20052;-76
2022/04/10 10:18:26;;;;;;;5.78;1.05;;;;;;;19.58;38.53;101390.03;4914223;29;20048;-76
2022/04/10 10:20:54;;;;;;;1.58;0.80;;;;;;;19.58;38.66;101390.03;4913601;29;20070;-75
2022/04/10 10:23:22;;;;;;;3.78;1.42;;;;;;;19.57;40.01;101391.88;4914221;29;20468;-76
2022/04/10 10:26:19;;;;;;;1.98;1.02;;;;;;;19.60;39.63;101396.13;4914228;29;20056;-75
2022/04/10 10:28:56;;;;;;;3.60;1.38;;;;;;;19.61;41.58;101393.38;4914232;29;20051;-75
2022/04/10 10:31:48;;;;;;;2.92;0.90;;;;;;;19.63;40.40;101391.41;4913913;29;20150;-76
2022/04/10 10:34:16;;;;;;;2.35;1.10;;;;;;;19.64;40.56;101379.69;4914009;29;20055;-77
2022/04/10 10:36:44;;;;;;;2.20;0.95;;;;;;;19.65;40.50;101386.78;4914210;29;20052;-76
2022/04/10 10:39:11;;;;;;;3.60;1.30;;;;;;;19.66;40.66;101385.81;4898281;29;20040;-76
2022/04/10 10:41:40;;;;;;;2.30;1.05;;;;;;;19.68;40.90;101385.66;4894931;29;20045;-76
2022/04/10 10:44:40;;;;;;;2.50;1.27;;;;;;;19.68;40.11;101388.34;4878898;29;20408;-76
2022/04/10 10:47:21;;;;;;;5.50;1.20;;;;;;;19.67;39.65;101384.81;4856381;29;20066;-76
2022/04/10 10:49:54;;;;;;;4.95;1.60;;;;;;;19.68;40.07;101377.63;4841507;29;20057;-78
2022/04/10 10:52:23;;;;;;;1.65;1.00;;;;;;;19.68;40.27;101381.16;4855859;29;20061;-77
2022/04/10 10:54:56;;;;;;;4.03;1.20;;;;;;;19.68;40.31;101366.88;4856007;29;20057;-78
2022/04/10 10:57:41;;;;;;;2.38;1.40;;;;;;;19.67;40.64;101363.34;4856190;29;20153;-78
2022/04/10 11:00:12;;;;;;;2.97;1.20;;;;;;;19.67;40.86;101365.16;4855717;29;20054;-76
2022/04/10 11:02:52;;;;;;;1.67;0.95;;;;;;;19.69;41.57;101357.84;4855561;29;20084;-76
2022/04/10 11:05:32;;;;;;;2.03;0.90;;;;;;;19.68;40.50;101359.66;4856395;29;20513;-76
2022/04/10 11:08:07;;;;;;;2.13;1.10;;;;;;;19.69;41.29;101356.03;4859101;29;20076;-76
2022/04/10 11:10:37;;;;;;;4.13;1.27;;;;;;;19.69;41.12;101353.34;4858515;29;20069;-77
2022/04/10 11:13:07;;;;;;;3.88;0.90;;;;;;;19.69;41.29;101342.59;4858664;29;20053;-76
2022/04/10 11:15:49;;;;;;;3.95;1.00;;;;;;;19.70;40.39;101338.06;4858755;29;20166;-77
2022/04/10 11:18:31;;;;;;;3.97;1.00;;;;;;;19.70;40.81;101338.91;4867680;29;20062;-76
2022/04/10 11:21:07;;;;;;;2.45;1.15;;;;;;;19.70;40.35;101340.75;4844793;29;20072;-77
2022/04/10 11:23:40;;;;;;;2.90;1.42;;;;;;;19.70;40.88;101338.06;4869778;29;20065;-77
2022/04/10 11:26:20;;;;;;;6.05;1.30;;;;;;;19.69;40.42;101334.53;4880782;29;20053;-76
2022/04/10 11:28:57;;;;;;;1.77;0.88;;;;;;;19.69;40.52;101331.00;4894859;29;20135;-76
2022/04/10 11:31:27;;;;;;;2.40;1.05;;;;;;;19.70;38.88;101332.69;4879215;29;20057;-77
2022/04/10 11:34:13;;;;;;;2.00;1.10;;;;;;;19.68;38.23;101318.53;4879260;29;20057;-77
2022/04/10 11:36:52;;;;;;;2.05;1.05;;;;;;;19.68;38.59;101319.38;4878142;29;20060;-76
2022/04/10 11:39:29;;;;;;;4.03;1.13;;;;;;;19.70;40.93;101324.63;4878907;29;20049;-82
2022/04/10 11:42:02;;;;;;;5.72;1.40;;;;;;;19.69;41.88;101322.94;4878914;29;20404;-76